Saint Anthony, North Dakota
Current Conditions -  °F | °C
As of 10:15 PM on Thursday 30 Oct 2014 (Local Time) from KY19 Reporting Station
Scattered Clouds Scattered Clouds  
Wind Chill: 27°   Ceiling: Unl
Heat Index: 27°   Visibility: 10mi
Dew Point: 23°   Wind: 3mph
Humidity: 86%   Direction: 60°ENE
Pressure: 30.57"   Gusts: NA
Location:  46.62°N, 100.91°W
Report Text: KY19 310415Z AUTO 06003KT 10SM SCT030 M03/M05 A3057 RMK AO2
Loading
Personal Weather Stations






























Interactive Weather Map
Tropical Storm Tracking
New forecast layout! Learn more

10-Day Weather Forecast

Advertisements
Track Severe Weather on mobile